createdAt,value
2024-01-20T06:33:32.208Z,-1.20
2024-01-20T06:39:15.922Z,-1.20
2024-01-20T06:44:18.283Z,-1.10
2024-01-20T06:49:20.292Z,-1.10
2024-01-20T06:54:22.246Z,-1.10
2024-01-20T06:59:24.277Z,-1.10
2024-01-20T07:04:26.398Z,-1.10
2024-01-20T07:09:28.334Z,-1.00
2024-01-20T07:14:30.802Z,-1.00
2024-01-20T07:19:32.821Z,-1.00
2024-01-20T07:24:34.929Z,-1.00
2024-01-20T07:29:36.895Z,-1.00
2024-01-20T07:34:39.099Z,-1.00
2024-01-20T07:39:41.017Z,-1.00
2024-01-20T07:44:42.954Z,-1.00
2024-01-20T07:49:44.840Z,-1.00
2024-01-20T07:54:46.780Z,-1.00
2024-01-20T07:59:48.630Z,-1.00
2024-01-20T08:04:50.576Z,-0.90
2024-01-20T08:09:52.485Z,-0.90
2024-01-20T08:14:54.428Z,-0.90
2024-01-20T08:19:56.515Z,-0.90
2024-01-20T08:25:00.771Z,-0.80
2024-01-20T08:30:02.751Z,-0.80
2024-01-20T08:35:04.928Z,-0.70
2024-01-20T08:40:07.584Z,-0.70
2024-01-20T08:45:10.500Z,-0.60
2024-01-20T08:50:12.530Z,-0.60
2024-01-20T08:55:14.568Z,-0.60
2024-01-20T09:00:17.957Z,-0.50
2024-01-20T09:05:20.509Z,-0.50
2024-01-20T09:10:22.498Z,-0.40
2024-01-20T09:15:24.521Z,-0.50
2024-01-20T09:20:26.675Z,-0.50
2024-01-20T09:25:28.971Z,-0.50
2024-01-20T09:30:31.873Z,-0.50
2024-01-20T09:35:33.816Z,-0.50
2024-01-20T09:40:36.681Z,-0.50
2024-01-20T09:45:40.168Z,-0.50
2024-01-20T09:50:42.881Z,-0.40
2024-01-20T09:55:46.827Z,-0.40
2024-01-20T10:00:49.693Z,-0.40
2024-01-20T10:05:53.391Z,-0.40
2024-01-20T10:11:05.550Z,-0.30
2024-01-20T10:16:08.203Z,-0.30
2024-01-20T10:21:10.192Z,-0.10
2024-01-20T10:26:12.084Z,-0.10
2024-01-20T10:31:14.021Z,0.00
2024-01-20T10:36:17.729Z,0.10
2024-01-20T10:41:20.497Z,0.10
2024-01-20T10:46:24.263Z,0.00
2024-01-20T10:51:30.668Z,0.10
2024-01-20T10:56:32.972Z,0.20
2024-01-20T11:01:35.821Z,0.20
2024-01-20T11:06:37.773Z,0.30
2024-01-20T11:11:40.554Z,0.30
2024-01-20T11:16:43.808Z,0.30
2024-01-20T11:21:46.311Z,0.20
2024-01-20T11:26:48.628Z,0.30
2024-01-20T11:31:50.884Z,0.20
2024-01-20T11:36:54.049Z,0.20
2024-01-20T11:42:00.951Z,0.20
2024-01-20T11:47:03.260Z,0.10
2024-01-20T11:52:05.495Z,0.20
2024-01-20T11:57:07.347Z,0.30
2024-01-20T12:02:09.239Z,0.40
2024-01-20T12:07:11.338Z,0.50
2024-01-20T12:12:14.530Z,0.60
2024-01-20T12:17:16.589Z,0.70
2024-01-20T12:22:18.556Z,0.70
2024-01-20T12:27:20.642Z,0.80
2024-01-20T12:32:22.649Z,0.70
2024-01-20T12:37:24.522Z,0.70
2024-01-20T12:42:26.451Z,0.70
2024-01-20T12:47:28.285Z,0.70
2024-01-20T12:52:30.202Z,0.60
2024-01-20T12:57:32.187Z,0.60
2024-01-20T13:02:34.226Z,0.60
2024-01-20T13:07:36.111Z,0.70
2024-01-20T13:12:38.194Z,0.70
2024-01-20T13:17:40.181Z,0.70
2024-01-20T13:22:42.149Z,0.80
2024-01-20T13:27:44.144Z,0.80
2024-01-20T13:32:46.091Z,0.90
2024-01-20T13:37:48.074Z,0.80
2024-01-20T13:42:50.228Z,0.80
2024-01-20T13:47:52.469Z,0.90
2024-01-20T13:52:54.674Z,0.90
2024-01-20T13:57:56.575Z,0.90
2024-01-20T14:03:01.104Z,1.00
2024-01-20T14:08:06.103Z,1.00
2024-01-20T14:13:08.417Z,1.00
2024-01-20T14:18:10.563Z,1.00
2024-01-20T14:23:12.783Z,1.00
2024-01-20T14:28:14.690Z,0.90
2024-01-20T14:33:16.843Z,0.90
2024-01-20T14:38:19.006Z,0.90
2024-01-20T14:43:21.674Z,0.90
2024-01-20T14:48:23.614Z,0.90
2024-01-20T14:53:25.624Z,0.80
2024-01-20T14:58:27.505Z,0.70
2024-01-20T15:03:31.925Z,0.80
2024-01-20T15:08:33.833Z,0.80
2024-01-20T15:13:35.685Z,0.80
2024-01-20T15:18:37.687Z,0.80
2024-01-20T15:23:39.630Z,0.80
2024-01-20T15:28:41.480Z,0.80
2024-01-20T15:33:43.551Z,0.70
2024-01-20T15:38:46.207Z,0.70
2024-01-20T15:43:48.236Z,0.70
2024-01-20T15:48:50.352Z,0.60
2024-01-20T15:53:52.401Z,0.60
2024-01-20T15:58:55.205Z,0.60
2024-01-20T16:03:57.095Z,0.50
2024-01-20T16:08:59.043Z,0.50
2024-01-20T16:14:01.019Z,0.40
2024-01-20T16:19:03.091Z,0.40
2024-01-20T16:24:05.572Z,0.30
2024-01-20T16:29:07.490Z,0.30
2024-01-20T16:34:10.309Z,0.20
2024-01-20T17:27:45.244Z,-0.30
2024-01-20T17:32:52.848Z,-0.30
2024-01-20T17:44:35.751Z,-0.40
2024-01-20T17:50:27.198Z,-0.40
2024-01-20T18:02:56.230Z,-0.40
2024-01-20T18:15:00.303Z,-0.50
2024-01-20T21:38:18.517Z,-0.40
2024-01-20T21:50:08.377Z,-0.40
